Time;durP1;ratioP1;P1;durP2;ratioP2;P2;SDS_P1;SDS_P2;PMS_P1;PMS_P2;Temp;Humidity;BMP_temperature;BMP_pressure;BME280_temperature;BME280_humidity;BME280_pressure;Samples;Min_cycle;Max_cycle;Signal;HPM_P1;HPM_P2
2023/05/04 00:01:52;;;;;;;2.95;2.75;;;19.00;57.30;;;;;;4959485;28;20635;-66
2023/05/04 00:04:19;;;;;;;3.00;2.80;;;19.00;57.30;;;;;;4959554;28;20240;-66
2023/05/04 00:06:46;;;;;;;3.22;3.03;;;19.00;57.30;;;;;;4959721;28;20220;-66
2023/05/04 00:09:13;;;;;;;2.92;2.72;;;19.00;57.30;;;;;;4943772;28;20216;-67
2023/05/04 00:11:40;;;;;;;3.00;2.80;;;19.00;57.30;;;;;;4959710;28;20185;-67
2023/05/04 00:14:06;;;;;;;3.00;2.80;;;19.00;57.30;;;;;;4958693;28;20205;-66
2023/05/04 00:16:34;;;;;;;2.83;2.63;;;19.00;57.30;;;;;;4977202;28;20670;-66
2023/05/04 00:19:00;;;;;;;2.90;2.70;;;19.00;57.40;;;;;;4960041;28;20197;-65
2023/05/04 00:21:26;;;;;;;3.15;2.85;;;19.00;57.40;;;;;;4959766;28;20185;-66
2023/05/04 00:23:51;;;;;;;2.90;2.70;;;19.00;57.40;;;;;;4959741;28;20221;-66
2023/05/04 00:26:17;;;;;;;3.10;2.90;;;18.90;57.30;;;;;;4943532;28;20218;-66
2023/05/04 00:28:43;;;;;;;2.95;2.75;;;19.00;57.30;;;;;;4959581;28;20665;-67
2023/05/04 00:31:09;;;;;;;3.00;2.80;;;19.00;57.40;;;;;;4959529;28;20185;-66
2023/05/04 00:33:35;;;;;;;3.13;2.92;;;19.00;57.40;;;;;;4959526;28;20683;-67
2023/05/04 00:36:03;;;;;;;3.30;3.03;;;19.00;57.40;;;;;;4943670;28;20194;-67
2023/05/04 00:38:28;;;;;;;3.13;2.92;;;19.00;57.40;;;;;;4959455;28;20185;-65
2023/05/04 00:40:54;;;;;;;3.10;2.90;;;18.90;57.30;;;;;;4959219;28;20284;-66
2023/05/04 00:43:20;;;;;;;3.22;3.03;;;19.00;57.40;;;;;;4959492;28;20189;-66
2023/05/04 00:45:47;;;;;;;2.88;2.67;;;19.00;57.40;;;;;;4959012;28;20566;-67
2023/05/04 00:48:13;;;;;;;3.08;2.88;;;19.00;57.40;;;;;;4959525;28;20240;-67
2023/05/04 00:50:39;;;;;;;3.13;2.92;;;19.00;57.40;;;;;;4959132;28;20573;-67
2023/05/04 00:53:09;;;;;;;2.90;2.70;;;18.90;57.30;;;;;;4959273;28;20200;-66
2023/05/04 00:55:39;;;;;;;3.30;3.10;;;18.90;57.30;;;;;;4958814;28;20732;-66
2023/05/04 00:58:08;;;;;;;3.30;3.10;;;18.90;57.30;;;;;;4943223;28;20653;-66
2023/05/04 01:00:35;;;;;;;3.30;3.10;;;18.90;57.30;;;;;;4959387;28;20327;-66
2023/05/04 01:03:00;;;;;;;3.00;2.80;;;18.90;57.30;;;;;;4958936;28;20748;-67
2023/05/04 01:05:36;;;;;;;3.30;3.00;;;18.90;57.30;;;;;;4942746;28;20304;-65
2023/05/04 01:08:20;;;;;;;2.80;2.60;;;19.00;57.40;;;;;;4959038;28;20202;-66
2023/05/04 01:11:02;;;;;;;3.05;2.75;;;18.90;57.30;;;;;;4959006;28;20233;-67
2023/05/04 01:13:33;;;;;;;3.78;3.15;;;18.90;57.30;;;;;;4942360;28;20193;-66
2023/05/04 01:16:02;;;;;;;3.50;3.30;;;18.90;57.40;;;;;;4958917;28;20581;-67
2023/05/04 01:18:28;;;;;;;3.25;2.97;;;18.90;57.30;;;;;;4943145;28;20197;-66
2023/05/04 01:20:53;;;;;;;3.80;3.50;;;18.90;57.40;;;;;;4958688;28;20185;-66
2023/05/04 01:23:21;;;;;;;3.35;3.15;;;18.90;57.30;;;;;;4958593;28;20193;-66
2023/05/04 01:26:15;;;;;;;3.03;2.83;;;18.90;57.40;;;;;;4958253;28;20300;-66
2023/05/04 01:28:56;;;;;;;3.33;3.13;;;18.90;57.40;;;;;;4958617;28;20194;-67
2023/05/04 01:31:26;;;;;;;3.30;3.10;;;18.90;57.40;;;;;;4942533;28;20186;-66
2023/05/04 01:33:54;;;;;;;3.22;3.03;;;18.90;57.40;;;;;;4982704;28;20214;-66
2023/05/04 01:36:21;;;;;;;3.60;3.30;;;18.90;57.40;;;;;;4969754;28;20209;-66
2023/05/04 01:38:48;;;;;;;3.15;2.95;;;18.90;57.40;;;;;;4947752;28;20194;-66
2023/05/04 01:41:14;;;;;;;3.30;3.05;;;18.90;57.40;;;;;;4966401;28;20221;-66
2023/05/04 01:43:41;;;;;;;3.10;2.90;;;18.90;57.40;;;;;;4982504;28;20251;-66
2023/05/04 01:46:07;;;;;;;3.17;2.97;;;18.90;57.40;;;;;;4942173;28;20304;-66
2023/05/04 01:48:32;;;;;;;3.30;3.00;;;18.90;57.40;;;;;;4959983;28;20333;-66
2023/05/04 01:50:58;;;;;;;3.17;2.97;;;18.90;57.40;;;;;;4946810;29;20182;-66
2023/05/04 01:53:24;;;;;;;3.60;3.30;;;18.90;57.40;;;;;;4961868;28;20284;-65
2023/05/04 01:55:50;;;;;;;3.15;2.95;;;18.90;57.40;;;;;;4972897;28;20213;-66
2023/05/04 01:58:17;;;;;;;3.17;2.97;;;18.90;57.40;;;;;;4983164;28;20189;-67
2023/05/04 02:00:43;;;;;;;3.17;2.97;;;18.90;57.40;;;;;;4990046;28;20185;-66
2023/05/04 02:03:09;;;;;;;3.33;3.03;;;18.90;57.40;;;;;;4982187;28;20189;-66
2023/05/04 02:05:35;;;;;;;3.40;3.10;;;18.90;57.40;;;;;;4967164;28;20232;-65
2023/05/04 02:08:00;;;;;;;3.42;3.22;;;18.90;57.40;;;;;;4982335;28;20198;-66
2023/05/04 02:10:26;;;;;;;3.45;3.20;;;18.90;57.40;;;;;;4982219;28;20194;-66
2023/05/04 02:12:52;;;;;;;3.75;3.47;;;18.90;57.40;;;;;;4964861;28;20190;-66
2023/05/04 02:15:18;;;;;;;3.08;2.78;;;18.90;57.40;;;;;;4950972;28;20232;-66
2023/05/04 02:17:45;;;;;;;3.25;3.05;;;18.90;57.40;;;;;;4965546;28;20239;-66
2023/05/04 02:20:11;;;;;;;3.40;3.17;;;18.90;57.40;;;;;;4966097;28;20662;-66
2023/05/04 02:22:38;;;;;;;3.53;3.22;;;18.90;57.40;;;;;;4957779;28;20185;-66
2023/05/04 02:25:05;;;;;;;3.30;3.00;;;18.90;58.00;;;;;;4957316;28;20217;-66
2023/05/04 02:27:30;;;;;;;3.15;2.95;;;18.90;57.40;;;;;;4974851;28;20356;-66
2023/05/04 02:29:59;;;;;;;3.65;3.30;;;18.90;57.40;;;;;;4946163;28;20252;-67
2023/05/04 02:32:25;;;;;;;3.38;3.17;;;18.90;57.40;;;;;;4957436;28;20193;-66
2023/05/04 02:34:52;;;;;;;3.67;3.38;;;18.90;57.40;;;;;;4957404;28;20214;-66
2023/05/04 02:37:18;;;;;;;3.50;3.20;;;18.90;57.40;;;;;;4957594;28;20189;-67
2023/05/04 02:39:44;;;;;;;3.30;3.10;;;18.90;57.40;;;;;;4957432;28;20197;-66
2023/05/04 02:42:10;;;;;;;3.58;3.28;;;18.90;57.40;;;;;;4941298;28;20451;-66
2023/05/04 02:44:36;;;;;;;3.17;2.97;;;18.90;57.40;;;;;;4956976;28;20248;-66
2023/05/04 02:47:01;;;;;;;3.10;2.80;;;18.90;57.40;;;;;;4957098;28;20233;-66
2023/05/04 02:49:28;;;;;;;3.30;3.10;;;18.90;57.40;;;;;;4941345;28;20181;-66
2023/05/04 02:51:54;;;;;;;3.50;3.20;;;18.80;57.30;;;;;;4941641;28;20244;-65
2023/05/04 02:54:20;;;;;;;3.83;3.53;;;18.90;57.40;;;;;;4956788;28;20221;-66
2023/05/04 02:56:45;;;;;;;3.50;3.30;;;18.80;57.30;;;;;;4956621;28;20194;-66
2023/05/04 02:59:11;;;;;;;3.47;3.22;;;18.80;57.30;;;;;;4956800;28;20200;-66
2023/05/04 03:01:37;;;;;;;3.33;3.05;;;18.80;57.30;;;;;;4969655;28;20186;-66
2023/05/04 03:04:04;;;;;;;3.38;3.08;;;18.80;57.30;;;;;;4955683;28;20219;-65
2023/05/04 03:06:30;;;;;;;3.45;3.15;;;18.80;57.30;;;;;;4973798;28;20292;-66
2023/05/04 03:08:56;;;;;;;3.70;3.40;;;18.80;57.30;;;;;;4956532;28;20204;-67
2023/05/04 03:11:22;;;;;;;3.60;3.30;;;18.80;57.40;;;;;;4956530;28;20683;-66
2023/05/04 03:13:48;;;;;;;3.60;3.30;;;18.80;57.30;;;;;;4956243;28;20213;-67
2023/05/04 03:16:13;;;;;;;3.40;3.20;;;18.80;57.30;;;;;;4956552;28;20225;-67
2023/05/04 03:18:39;;;;;;;3.00;2.80;;;18.80;57.30;;;;;;4940680;28;20186;-67
2023/05/04 03:21:05;;;;;;;3.42;3.13;;;18.80;57.40;;;;;;4956138;28;20197;-65
2023/05/04 03:23:31;;;;;;;3.80;3.50;;;18.80;57.40;;;;;;4955822;28;20186;-66
2023/05/04 03:25:57;;;;;;;3.30;3.10;;;18.80;57.30;;;;;;4939940;28;20711;-67
2023/05/04 03:28:23;;;;;;;3.58;3.33;;;18.80;57.30;;;;;;4940445;28;20217;-67
2023/05/04 03:30:49;;;;;;;3.20;3.00;;;18.80;57.30;;;;;;4958692;28;20209;-67
2023/05/04 03:33:17;;;;;;;3.70;3.40;;;18.80;57.40;;;;;;4972210;28;20271;-66
2023/05/04 03:35:43;;;;;;;3.67;3.47;;;18.80;57.30;;;;;;4955446;28;20229;-67
2023/05/04 03:38:10;;;;;;;3.40;3.10;;;18.80;57.40;;;;;;4956220;28;20181;-66
2023/05/04 03:40:36;;;;;;;3.55;3.35;;;18.80;57.30;;;;;;4956243;28;20189;-67
2023/05/04 03:43:02;;;;;;;3.58;3.30;;;18.80;57.30;;;;;;4956285;28;20246;-66
2023/05/04 03:45:28;;;;;;;3.72;3.42;;;18.80;57.40;;;;;;4956166;28;20205;-66
2023/05/04 03:47:57;;;;;;;3.47;3.17;;;18.80;57.40;;;;;;4956125;28;20813;-65
2023/05/04 03:50:23;;;;;;;3.78;3.42;;;18.80;57.30;;;;;;4955980;28;20203;-67
2023/05/04 03:52:50;;;;;;;3.60;3.30;;;18.80;57.30;;;;;;4956094;28;20253;-66
2023/05/04 03:55:18;;;;;;;3.42;3.13;;;18.80;57.30;;;;;;4955730;28;20300;-66
2023/05/04 03:57:48;;;;;;;3.60;3.30;;;18.80;57.40;;;;;;4955876;28;20273;-65
2023/05/04 04:00:15;;;;;;;3.50;3.28;;;18.80;57.40;;;;;;4956454;28;20245;-66
2023/05/04 04:02:40;;;;;;;3.65;3.35;;;18.80;57.30;;;;;;4973474;28;20280;-66
2023/05/04 04:05:08;;;;;;;3.58;3.28;;;18.80;57.30;;;;;;4955965;28;20201;-66
2023/05/04 04:07:36;;;;;;;3.90;3.50;;;18.80;57.40;;;;;;4940253;28;20205;-66
2023/05/04 04:10:01;;;;;;;3.15;2.95;;;18.80;57.30;;;;;;4955735;28;20224;-66
2023/05/04 04:12:28;;;;;;;3.80;3.10;;;18.80;57.30;;;;;;4972260;28;20241;-66
2023/05/04 04:14:54;;;;;;;3.70;3.28;;;18.80;57.40;;;;;;4955889;28;20209;-66
2023/05/04 04:17:20;;;;;;;3.67;3.38;;;18.80;57.40;;;;;;4956065;28;20186;-67
2023/05/04 04:19:45;;;;;;;3.08;2.88;;;18.80;57.30;;;;;;4955685;28;20213;-66
2023/05/04 04:22:11;;;;;;;4.07;3.75;;;18.80;57.30;;;;;;4939857;28;20209;-66
2023/05/04 04:24:37;;;;;;;3.30;3.10;;;18.80;57.30;;;;;;4955437;28;20220;-66
2023/05/04 04:27:03;;;;;;;3.70;3.40;;;18.80;57.30;;;;;;4955514;28;20296;-66
2023/05/04 04:29:28;;;;;;;3.40;3.20;;;18.80;57.40;;;;;;4955756;28;20185;-66
2023/05/04 04:31:54;;;;;;;3.28;3.03;;;18.80;57.30;;;;;;4955597;28;20178;-66
2023/05/04 04:34:21;;;;;;;4.18;3.42;;;18.70;57.30;;;;;;4947461;28;20225;-67
2023/05/04 04:36:46;;;;;;;3.28;3.08;;;18.80;57.40;;;;;;4953831;28;20202;-66
2023/05/04 04:39:13;;;;;;;3.20;3.00;;;18.80;57.40;;;;;;4955688;28;20366;-66
2023/05/04 04:41:38;;;;;;;3.67;3.47;;;18.80;57.40;;;;;;4972856;28;20225;-68
2023/05/04 04:44:04;;;;;;;3.40;3.10;;;18.80;57.40;;;;;;4972680;28;20316;-67
2023/05/04 04:46:30;;;;;;;3.58;3.28;;;18.80;57.40;;;;;;4939676;28;20219;-68
2023/05/04 04:48:56;;;;;;;3.55;3.35;;;18.80;57.40;;;;;;4975275;28;20236;-68
2023/05/04 04:51:22;;;;;;;3.75;3.15;;;18.80;57.30;;;;;;4959257;28;20252;-67
2023/05/04 04:53:47;;;;;;;3.75;3.53;;;18.70;57.20;;;;;;4959104;28;20221;-67
2023/05/04 04:56:13;;;;;;;3.63;3.33;;;18.80;57.40;;;;;;4959258;28;20665;-67
2023/05/04 04:58:39;;;;;;;3.30;3.10;;;18.80;57.30;;;;;;4959305;28;20720;-67
2023/05/04 05:01:06;;;;;;;2.92;2.72;;;18.80;57.40;;;;;;4959036;28;20188;-67
2023/05/04 05:03:32;;;;;;;3.85;3.55;;;18.80;57.30;;;;;;4942906;28;20217;-67
2023/05/04 05:06:00;;;;;;;3.15;2.95;;;18.80;57.30;;;;;;4959039;28;20252;-67
2023/05/04 05:08:26;;;;;;;3.35;3.05;;;18.80;57.30;;;;;;4958945;28;20276;-67
2023/05/04 05:10:52;;;;;;;3.60;3.30;;;18.80;57.30;;;;;;4958874;28;20189;-67
2023/05/04 05:13:18;;;;;;;3.03;2.83;;;18.80;57.30;;;;;;4958995;28;20240;-68
2023/05/04 05:15:44;;;;;;;3.33;3.10;;;18.80;57.30;;;;;;4958749;28;20205;-68
2023/05/04 05:18:09;;;;;;;3.33;3.03;;;18.80;57.30;;;;;;4975955;28;20225;-67
2023/05/04 05:20:35;;;;;;;3.13;2.92;;;18.80;57.30;;;;;;4959002;28;20190;-67
2023/05/04 05:23:01;;;;;;;3.67;3.38;;;18.80;57.30;;;;;;4973738;28;20228;-67
2023/05/04 05:25:26;;;;;;;3.38;3.17;;;18.80;57.30;;;;;;4958312;28;20213;-67
2023/05/04 05:27:52;;;;;;;3.03;2.83;;;18.80;57.30;;;;;;4958352;28;20185;-66
2023/05/04 05:30:18;;;;;;;3.28;3.08;;;18.80;57.30;;;;;;4958769;28;20649;-66
2023/05/04 05:32:45;;;;;;;3.53;3.28;;;18.90;57.30;;;;;;4942431;28;20189;-67
2023/05/04 05:35:11;;;;;;;3.53;3.22;;;18.90;57.30;;;;;;4975331;28;20209;-67
2023/05/04 05:37:37;;;;;;;3.50;3.25;;;18.90;57.30;;;;;;4975629;28;20201;-67
2023/05/04 05:40:06;;;;;;;3.20;3.00;;;18.90;57.30;;;;;;4974484;28;20189;-67
2023/05/04 05:42:32;;;;;;;3.60;3.30;;;18.90;57.30;;;;;;4958434;28;20198;-67
2023/05/04 05:45:00;;;;;;;3.55;3.25;;;18.90;57.30;;;;;;4975148;28;20292;-67
2023/05/04 05:47:26;;;;;;;3.00;2.80;;;18.90;57.30;;;;;;4958001;28;20210;-67
2023/05/04 05:49:52;;;;;;;3.72;3.42;;;18.90;57.30;;;;;;4957957;28;20193;-67
2023/05/04 05:52:18;;;;;;;3.28;3.08;;;18.90;57.30;;;;;;4957971;28;20186;-67
2023/05/04 05:54:44;;;;;;;3.80;3.50;;;18.90;57.30;;;;;;4957791;28;20225;-67
2023/05/04 05:57:10;;;;;;;3.40;3.20;;;18.90;57.30;;;;;;4958052;28;20193;-66
2023/05/04 05:59:35;;;;;;;3.35;3.15;;;18.90;57.30;;;;;;4957421;28;20665;-67
2023/05/04 06:02:01;;;;;;;3.70;3.40;;;18.90;57.20;;;;;;4957558;28;20194;-67
2023/05/04 06:04:27;;;;;;;3.13;2.92;;;18.90;57.20;;;;;;4941600;28;20232;-66
2023/05/04 06:06:53;;;;;;;3.72;3.42;;;18.90;57.20;;;;;;4955922;28;20592;-67
2023/05/04 06:09:18;;;;;;;3.72;3.42;;;19.00;57.20;;;;;;4958051;28;20178;-67
2023/05/04 06:11:44;;;;;;;3.60;3.40;;;18.90;57.20;;;;;;4957673;28;20244;-66
2023/05/04 06:14:10;;;;;;;3.63;3.33;;;18.90;57.20;;;;;;4974296;28;20198;-67
2023/05/04 06:16:36;;;;;;;4.07;3.70;;;19.00;57.20;;;;;;4957586;28;20191;-67
2023/05/04 06:19:02;;;;;;;3.63;3.33;;;19.00;57.20;;;;;;4973484;28;20266;-66
2023/05/04 06:21:27;;;;;;;4.00;3.70;;;19.00;57.20;;;;;;4957679;28;20193;-67
2023/05/04 06:23:53;;;;;;;4.05;3.75;;;19.00;57.20;;;;;;4941587;28;20220;-67
2023/05/04 06:26:20;;;;;;;3.60;3.30;;;19.00;57.20;;;;;;4941217;28;20217;-67
2023/05/04 06:28:47;;;;;;;3.45;3.17;;;19.00;57.20;;;;;;4941182;28;20197;-66
2023/05/04 06:31:13;;;;;;;3.80;3.50;;;19.00;57.20;;;;;;4957672;28;20274;-66
2023/05/04 06:33:39;;;;;;;4.25;3.85;;;19.00;57.20;;;;;;4957239;28;20196;-65
2023/05/04 06:36:05;;;;;;;4.25;3.90;;;19.00;57.20;;;;;;4957060;28;20292;-67
2023/05/04 06:38:31;;;;;;;3.67;3.38;;;19.00;57.10;;;;;;4957297;28;20185;-66
2023/05/04 06:40:56;;;;;;;3.50;3.30;;;19.00;57.20;;;;;;4956912;28;20195;-66
2023/05/04 06:43:22;;;;;;;3.70;3.40;;;19.00;57.10;;;;;;4941223;28;20193;-67
2023/05/04 06:45:48;;;;;;;3.80;3.50;;;19.10;57.20;;;;;;4956715;28;20217;-67
2023/05/04 06:48:13;;;;;;;3.83;3.53;;;19.10;57.10;;;;;;4957127;28;20194;-67
2023/05/04 06:50:39;;;;;;;3.95;3.65;;;19.10;57.10;;;;;;4957291;28;20181;-67
2023/05/04 06:53:07;;;;;;;3.70;3.40;;;19.10;57.10;;;;;;4956710;28;20732;-67
2023/05/04 06:55:37;;;;;;;4.20;3.90;;;19.10;57.00;;;;;;4969589;28;20206;-67
2023/05/04 06:58:03;;;;;;;3.83;3.50;;;19.20;57.10;;;;;;4971939;28;20221;-67
2023/05/04 07:00:30;;;;;;;3.53;3.33;;;19.20;57.10;;;;;;4956930;28;20185;-67
2023/05/04 07:02:56;;;;;;;3.83;3.40;;;19.20;57.00;;;;;;4956840;28;20301;-67
2023/05/04 07:05:22;;;;;;;3.70;3.40;;;19.10;56.90;;;;;;4956414;28;20213;-67
2023/05/04 07:07:49;;;;;;;3.58;3.28;;;19.20;56.90;;;;;;4956504;28;20209;-67
2023/05/04 07:10:15;;;;;;;3.47;3.28;;;19.20;56.90;;;;;;4972069;28;20193;-67
2023/05/04 07:12:42;;;;;;;3.60;3.40;;;19.20;56.90;;;;;;4956697;28;20178;-66
2023/05/04 07:15:09;;;;;;;3.67;3.38;;;19.20;56.90;;;;;;4956348;28;20206;-66
2023/05/04 07:17:36;;;;;;;3.47;3.20;;;19.20;56.90;;;;;;4956535;28;20189;-66
2023/05/04 07:20:06;;;;;;;3.10;2.90;;;19.20;56.90;;;;;;4941421;28;20197;-67
2023/05/04 07:22:32;;;;;;;3.20;3.00;;;19.20;56.90;;;;;;4940750;28;20248;-67
2023/05/04 07:25:00;;;;;;;3.28;2.97;;;19.20;56.90;;;;;;4973465;28;20222;-66
2023/05/04 07:27:26;;;;;;;3.15;2.85;;;19.20;56.90;;;;;;4956288;28;20685;-67
2023/05/04 07:29:51;;;;;;;3.30;3.05;;;19.30;57.00;;;;;;4956238;28;20189;-67
2023/05/04 07:32:18;;;;;;;3.13;2.92;;;19.30;57.00;;;;;;4956343;28;20202;-66
2023/05/04 07:34:44;;;;;;;3.00;2.80;;;19.30;57.00;;;;;;4955854;28;20205;-67
2023/05/04 07:37:11;;;;;;;3.60;3.30;;;19.30;56.90;;;;;;4973486;28;20208;-67
2023/05/04 07:39:37;;;;;;;2.97;2.78;;;19.30;56.80;;;;;;4972416;28;20186;-66
2023/05/04 07:42:04;;;;;;;3.08;2.88;;;19.30;56.80;;;;;;4973450;28;20283;-66
2023/05/04 07:44:30;;;;;;;3.15;2.95;;;19.40;56.90;;;;;;4955845;28;20241;-67
2023/05/04 07:47:00;;;;;;;3.42;3.15;;;19.40;56.90;;;;;;4940186;28;20232;-66
2023/05/04 07:49:26;;;;;;;3.50;3.20;;;19.40;56.80;;;;;;4956102;28;20277;-67
2023/05/04 07:51:52;;;;;;;3.05;2.85;;;19.40;56.80;;;;;;4940011;28;20177;-68
2023/05/04 07:54:18;;;;;;;2.88;2.67;;;19.40;56.70;;;;;;4939960;28;20715;-67
2023/05/04 07:56:45;;;;;;;3.13;2.92;;;19.40;56.50;;;;;;4956276;28;20185;-67
2023/05/04 07:59:11;;;;;;;3.42;3.17;;;19.40;56.60;;;;;;4940048;28;20197;-67
2023/05/04 08:01:37;;;;;;;3.30;3.03;;;19.40;56.60;;;;;;4955969;28;20280;-67
2023/05/04 08:04:02;;;;;;;3.20;2.90;;;19.50;56.70;;;;;;4956359;28;20217;-67
2023/05/04 08:06:28;;;;;;;3.03;2.83;;;19.40;56.60;;;;;;4939907;28;20220;-66
2023/05/04 08:08:54;;;;;;;3.05;2.75;;;19.50;56.70;;;;;;4940315;28;20551;-67
2023/05/04 08:11:20;;;;;;;3.20;3.00;;;19.50;56.80;;;;;;4972482;28;20185;-66
2023/05/04 08:13:47;;;;;;;3.30;2.60;;;19.50;56.70;;;;;;4956120;28;20190;-67
2023/05/04 08:16:13;;;;;;;3.05;2.80;;;19.50;56.80;;;;;;4973283;28;20191;-67
2023/05/04 08:18:39;;;;;;;2.70;2.50;;;19.50;56.90;;;;;;4956068;28;20197;-67
2023/05/04 08:21:04;;;;;;;2.80;2.60;;;19.50;56.80;;;;;;4956959;28;20190;-67
2023/05/04 08:23:32;;;;;;;3.20;2.90;;;19.50;56.90;;;;;;4975752;28;20193;-67
2023/05/04 08:26:05;;;;;;;3.00;2.80;;;19.50;56.90;;;;;;4973952;28;20321;-66
2023/05/04 08:28:44;;;;;;;4.05;3.00;;;19.50;56.80;;;;;;4959659;28;20208;-67
2023/05/04 08:31:10;;;;;;;2.97;2.78;;;19.50;57.10;;;;;;4991949;28;20253;-67
2023/05/04 08:33:35;;;;;;;2.90;2.70;;;19.50;56.80;;;;;;4959656;28;20204;-67
2023/05/04 08:36:03;;;;;;;2.75;2.55;;;19.50;56.90;;;;;;4975726;28;20211;-68
2023/05/04 08:38:29;;;;;;;3.60;3.30;;;19.50;56.80;;;;;;4959504;28;20208;-68
2023/05/04 08:40:56;;;;;;;2.72;2.53;;;19.50;56.80;;;;;;4959401;28;20185;-67
2023/05/04 08:43:22;;;;;;;3.50;3.20;;;19.50;56.70;;;;;;4959273;28;20277;-67
2023/05/04 08:45:49;;;;;;;3.00;2.80;;;19.50;56.30;;;;;;4959158;28;20217;-67
2023/05/04 08:48:15;;;;;;;2.90;2.70;;;19.50;56.30;;;;;;4988382;28;20186;-67
2023/05/04 08:50:41;;;;;;;2.63;2.42;;;19.60;56.50;;;;;;4970888;28;20241;-67
2023/05/04 08:53:12;;;;;;;3.20;3.00;;;19.50;56.60;;;;;;4975539;28;20198;-68
2023/05/04 08:55:42;;;;;;;2.80;2.60;;;19.60;56.30;;;;;;4953001;29;20222;-66
2023/05/04 08:58:16;;;;;;;2.70;2.50;;;19.60;56.30;;;;;;4950119;28;20194;-66
2023/05/04 09:00:43;;;;;;;2.42;2.30;;;19.60;56.50;;;;;;4967279;28;20228;-66
2023/05/04 09:03:10;;;;;;;2.88;2.67;;;19.60;56.20;;;;;;4968504;28;20189;-67
2023/05/04 09:05:37;;;;;;;2.78;2.58;;;19.60;56.40;;;;;;4967971;28;20213;-67
2023/05/04 09:08:03;;;;;;;2.72;2.55;;;19.60;56.40;;;;;;4957614;28;20206;-67
2023/05/04 09:10:30;;;;;;;2.47;2.38;;;19.50;56.40;;;;;;4944608;28;20225;-68
2023/05/04 09:12:55;;;;;;;3.10;2.60;;;19.60;56.60;;;;;;4943021;28;20194;-67
2023/05/04 09:15:22;;;;;;;3.13;2.92;;;19.60;56.80;;;;;;4972140;28;20217;-68
2023/05/04 09:18:03;;;;;;;3.35;3.05;;;19.60;56.60;;;;;;4947654;29;20198;-67
2023/05/04 09:20:41;;;;;;;2.97;2.78;;;19.60;56.30;;;;;;4939866;29;20194;-67
2023/05/04 09:23:08;;;;;;;3.40;3.20;;;19.60;56.60;;;;;;4971717;28;20211;-68
2023/05/04 09:25:50;;;;;;;3.13;2.92;;;19.60;56.30;;;;;;4969768;28;20213;-67
2023/05/04 09:28:17;;;;;;;2.80;2.58;;;19.60;56.60;;;;;;4966948;28;20260;-67
2023/05/04 09:30:44;;;;;;;2.70;2.53;;;19.60;56.40;;;;;;4950574;28;20269;-67
2023/05/04 09:33:10;;;;;;;2.63;2.42;;;19.50;56.20;;;;;;4947757;29;20240;-67
2023/05/04 09:35:40;;;;;;;2.65;2.42;;;19.50;56.40;;;;;;4952574;28;20232;-67
2023/05/04 09:38:06;;;;;;;2.78;2.58;;;19.60;56.60;;;;;;4958447;28;20200;-68
2023/05/04 09:40:36;;;;;;;3.05;2.85;;;19.60;56.60;;;;;;4958681;28;20284;-67
2023/05/04 09:43:02;;;;;;;2.75;2.55;;;19.60;56.60;;;;;;4958583;28;20193;-68
2023/05/04 09:45:43;;;;;;;2.55;2.42;;;19.50;56.80;;;;;;4971370;28;20369;-67
2023/05/04 09:48:28;;;;;;;2.95;2.75;;;19.50;56.60;;;;;;4941095;28;20183;-68
2023/05/04 09:50:56;;;;;;;2.80;2.53;;;19.50;56.70;;;;;;4958333;28;20181;-68
2023/05/04 09:53:30;;;;;;;2.75;2.55;;;19.50;56.80;;;;;;4942249;28;20409;-68
2023/05/04 09:56:28;;;;;;;3.47;2.80;;;19.50;56.80;;;;;;4958083;28;20614;-67
2023/05/04 09:58:57;;;;;;;2.65;2.45;;;19.50;57.00;;;;;;4895806;28;20218;-68
2023/05/04 10:01:27;;;;;;;2.58;2.00;;;19.50;56.90;;;;;;4975423;28;20194;-67
2023/05/04 10:03:53;;;;;;;2.55;2.42;;;19.50;57.10;;;;;;4946542;28;20233;-68
2023/05/04 10:06:20;;;;;;;2.72;2.30;;;19.50;57.80;;;;;;4957810;28;20221;-67
2023/05/04 10:08:48;;;;;;;2.67;2.47;;;19.50;57.20;;;;;;4958046;28;20222;-66
2023/05/04 10:11:17;;;;;;;2.47;2.28;;;19.50;57.30;;;;;;4942011;28;20198;-67
2023/05/04 10:13:48;;;;;;;2.65;2.45;;;19.50;57.40;;;;;;4975389;28;20190;-67
2023/05/04 10:16:48;;;;;;;3.00;2.80;;;19.50;57.40;;;;;;4966037;28;20198;-67
2023/05/04 10:20:06;;;;;;;4.53;4.13;;;19.50;57.50;;;;;;4947368;28;20197;-67
2023/05/04 10:22:44;;;;;;;29.67;19.15;;;19.50;57.20;;;;;;4938646;29;20182;-67
2023/05/04 10:25:34;;;;;;;33.33;21.33;;;19.50;57.50;;;;;;4938537;29;20209;-67
2023/05/04 10:28:07;;;;;;;26.88;18.48;;;19.50;57.40;;;;;;4964001;28;20246;-67
2023/05/04 10:30:33;;;;;;;32.65;22.63;;;19.50;57.40;;;;;;4960855;28;20202;-67
2023/05/04 10:33:00;;;;;;;108.50;66.20;;;19.50;57.30;;;;;;4978985;28;20220;-67
2023/05/04 10:35:27;;;;;;;66.93;45.10;;;19.50;57.90;;;;;;4974344;28;20684;-68
2023/05/04 10:37:54;;;;;;;150.15;94.95;;;19.50;57.40;;;;;;4956363;28;20190;-67
2023/05/04 10:40:39;;;;;;;138.75;90.97;;;19.50;57.50;;;;;;4986588;28;20209;-68
2023/05/04 10:43:07;;;;;;;172.05;110.88;;;19.60;57.60;;;;;;4979454;28;20225;-67
2023/05/04 10:45:40;;;;;;;250.68;161.27;;;19.60;57.50;;;;;;4951227;28;20225;-67
2023/05/04 10:48:09;;;;;;;191.27;123.45;;;19.60;57.60;;;;;;4962002;28;20584;-67
2023/05/04 10:50:48;;;;;;;229.95;147.07;;;19.50;57.50;;;;;;4945919;29;20193;-68
2023/05/04 10:53:16;;;;;;;282.38;188.80;;;19.60;58.30;;;;;;4947958;28;20241;-68
2023/05/04 10:55:46;;;;;;;260.63;171.40;;;19.60;57.70;;;;;;4943227;28;20222;-67
2023/05/04 10:58:17;;;;;;;240.70;151.05;;;19.60;57.70;;;;;;4953799;28;20224;-68
2023/05/04 11:00:46;;;;;;;239.35;159.43;;;19.60;57.80;;;;;;4955557;28;20189;-67
2023/05/04 11:03:13;;;;;;;256.88;166.95;;;19.60;57.80;;;;;;4970150;28;20198;-68
2023/05/04 11:05:45;;;;;;;196.90;127.13;;;19.60;57.90;;;;;;4950830;28;20214;-68
2023/05/04 11:08:29;;;;;;;217.55;138.15;;;19.60;57.70;;;;;;4956803;28;20197;-67
2023/05/04 11:11:06;;;;;;;222.10;144.90;;;19.60;57.40;;;;;;4957074;28;20204;-67
2023/05/04 11:13:46;;;;;;;265.45;178.55;;;19.60;57.60;;;;;;4956612;28;20443;-68
2023/05/04 11:16:12;;;;;;;313.95;215.32;;;19.60;57.80;;;;;;4956893;28;20197;-67
2023/05/04 11:18:40;;;;;;;302.50;210.65;;;19.60;57.90;;;;;;4956664;28;20193;-67
2023/05/04 11:21:07;;;;;;;289.65;201.45;;;19.60;57.90;;;;;;4971901;28;20208;-66
2023/05/04 11:23:33;;;;;;;261.98;177.80;;;19.60;57.80;;;;;;4966949;28;20198;-67
2023/05/04 11:26:11;;;;;;;269.92;181.43;;;19.60;57.80;;;;;;4946214;28;20225;-67
2023/05/04 11:28:37;;;;;;;292.67;207.10;;;19.50;57.80;;;;;;4950297;28;20193;-68
2023/05/04 11:31:14;;;;;;;262.08;173.63;;;19.60;57.90;;;;;;4940575;28;20221;-68
2023/05/04 11:33:53;;;;;;;241.30;159.18;;;19.50;57.80;;;;;;4956355;28;20189;-68
2023/05/04 11:36:21;;;;;;;250.30;165.82;;;19.60;57.80;;;;;;4940283;28;20288;-68
2023/05/04 11:38:48;;;;;;;223.70;149.57;;;19.60;57.60;;;;;;4956324;28;20193;-68
2023/05/04 11:41:14;;;;;;;255.05;174.65;;;19.60;57.50;;;;;;4956380;28;20268;-67
2023/05/04 11:43:44;;;;;;;238.95;159.13;;;19.60;57.60;;;;;;4956588;28;20616;-68
2023/05/04 11:46:10;;;;;;;236.98;154.55;;;19.60;57.60;;;;;;4973366;28;20216;-68
2023/05/04 11:48:37;;;;;;;241.82;161.55;;;19.60;57.40;;;;;;4972364;28;20601;-68
2023/05/04 11:51:05;;;;;;;253.40;170.07;;;19.60;57.50;;;;;;4964345;28;20198;-68
2023/05/04 11:53:38;;;;;;;256.58;173.48;;;19.60;57.60;;;;;;4961065;28;20354;-67
2023/05/04 11:56:07;;;;;;;257.77;174.02;;;19.60;57.60;;;;;;4952831;28;20197;-67
2023/05/04 11:58:32;;;;;;;252.45;170.35;;;19.60;57.60;;;;;;4956167;28;20202;-68
2023/05/04 12:00:59;;;;;;;241.65;163.88;;;19.60;57.60;;;;;;4956454;28;20200;-67
2023/05/04 12:03:27;;;;;;;229.20;156.93;;;19.60;57.60;;;;;;4956268;28;20208;-68
2023/05/04 12:05:55;;;;;;;239.32;164.38;;;19.60;57.50;;;;;;4940279;28;20213;-67
2023/05/04 12:08:25;;;;;;;223.43;148.55;;;19.60;57.60;;;;;;4940073;28;20200;-68
2023/05/04 12:11:20;;;;;;;214.63;145.13;;;19.60;57.60;;;;;;4953199;28;20202;-67
2023/05/04 12:14:00;;;;;;;209.98;142.35;;;19.60;57.60;;;;;;4950437;28;20193;-68
2023/05/04 12:16:26;;;;;;;212.95;148.18;;;19.60;57.50;;;;;;4971772;28;20193;-67
2023/05/04 12:19:11;;;;;;;196.00;135.63;;;19.60;57.60;;;;;;4955983;28;20197;-66
2023/05/04 12:21:52;;;;;;;219.23;147.63;;;19.60;57.50;;;;;;4965552;28;20205;-67
2023/05/04 12:24:22;;;;;;;213.55;145.10;;;19.60;57.60;;;;;;4972169;28;20225;-67
2023/05/04 12:26:49;;;;;;;215.05;145.57;;;19.60;57.60;;;;;;4956197;28;20221;-68
2023/05/04 12:29:15;;;;;;;203.02;139.30;;;19.60;57.50;;;;;;4979019;28;20190;-67
2023/05/04 12:31:40;;;;;;;209.70;138.00;;;19.60;57.50;;;;;;4953833;29;20269;-67
2023/05/04 12:34:06;;;;;;;205.18;139.00;;;19.60;57.60;;;;;;4953026;28;20214;-68
2023/05/04 12:36:33;;;;;;;192.27;132.32;;;19.60;57.50;;;;;;4955985;28;20208;-67
2023/05/04 12:38:59;;;;;;;190.40;132.40;;;19.60;57.40;;;;;;4955753;28;20190;-68
2023/05/04 12:41:25;;;;;;;187.15;126.60;;;19.60;57.50;;;;;;4962137;28;20196;-68
2023/05/04 12:43:51;;;;;;;179.80;126.97;;;19.60;57.50;;;;;;4944796;29;20299;-68
2023/05/04 12:46:20;;;;;;;165.27;116.43;;;19.60;57.60;;;;;;4955095;28;20681;-67